Latest Weather Observations for Nambour

IDQ60801

Issued at 11:32 pm EST Saturday 28 February 2015 (issued every 30 minutes, with the page automatically refreshed every 10 minutes)

About weather observations | Map of weather stations | Latest weather observations for QLD | Other Formats
Station Details ID: 040988 Name: NAMBOUR DAFF - HILLSIDE Lat: -26.64 Lon: 152.94 Height: 53.24 m
Data from the previous 72 hours. | See also: Recent months at Nambour
Date/Time
EST
Temp
°C
App
Temp
°C
Dew
Point
Rel
Hum
%
Delta-T
°C
Wind Press
QNH
hPa
Press
MSL
hPa
Rain
since 9 am
mm
Dir
 
Spd
km/h
Gust
km/h
Spd
kts
Gust
kts
28/11:30pm 22.0 26.0 20.6 92 0.9 CALM 0 0 0 0 1011.4 1011.1 0.0
28/11:00pm 22.4 26.2 20.9 91 1.0 SSW 2 6 1 3 1011.7 1011.4 0.0
28/10:30pm 23.0 27.2 20.9 88 1.4 CALM 0 0 0 0 1011.8 1011.5 0.0
28/10:00pm 22.5 26.3 20.2 87 1.5 CALM 0 0 0 0 1011.7 1011.4 0.0
28/09:30pm 22.9 26.7 20.1 84 1.8 CALM 0 0 0 0 1011.7 1011.4 0.0
28/09:00pm 23.4 27.2 20.2 82 2.1 CALM 0 0 0 0 1011.5 1011.2 0.0
28/08:30pm 23.2 27.0 20.2 83 1.9 CALM 0 0 0 0 1011.2 1010.9 0.0
28/08:00pm 23.4 27.1 20.0 81 2.2 CALM 0 0 0 0 1011.0 1010.7 0.0
28/07:30pm 24.4 28.0 19.7 75 3.0 CALM 0 0 0 0 1011.0 1010.7 0.0
28/07:00pm 24.5 28.2 20.0 76 2.9 CALM 0 0 0 0 1010.7 1010.4 0.0
28/06:30pm 24.8 27.9 19.6 73 3.4 ENE 2 6 1 3 1010.3 1010.0 0.0
28/06:00pm 25.5 27.7 19.6 70 3.8 ENE 7 15 4 8 1010.0 1009.7 0.0
28/05:30pm 26.0 27.7 19.4 67 4.3 ENE 9 13 5 7 1009.7 1009.4 0.0
28/05:00pm 25.8 27.1 19.2 67 4.3 E 11 17 6 9 1009.4 1009.1 0.0
28/04:30pm 26.3 27.6 19.4 66 4.5 E 11 15 6 8 1009.3 1009.0 0.0
28/04:00pm 26.9 27.9 19.5 64 4.8 ENE 13 19 7 10 1009.1 1008.8 0.0
28/03:30pm 26.9 28.1 19.8 65 4.6 E 13 19 7 10 1009.0 1008.7 0.0
28/03:00pm 27.2 27.9 18.8 60 5.4 E 13 19 7 10 1009.1 1008.8 0.0
28/02:30pm 28.2 28.6 18.9 57 6.0 E 15 20 8 11 1009.2 1008.9 0.0
28/02:00pm 27.8 28.2 18.2 56 6.1 ENE 13 22 7 12 1009.5 1009.2 0.0
28/01:30pm 27.9 28.9 18.6 57 6.0 E 11 19 6 10 1009.7 1009.4 0.0
28/01:00pm 28.7 29.8 19.6 58 5.9 E 13 20 7 11 1010.0 1009.7 0.0
28/12:30pm 28.7 30.0 18.5 54 6.6 E 9 19 5 10 1010.2 1009.9 0.0
28/12:00pm 28.1 29.7 18.2 55 6.3 ENE 7 17 4 9 1010.3 1010.0 0.0
28/11:30am 27.9 29.8 18.9 58 5.8 E 7 13 4 7 1010.6 1010.3 0.0
28/11:00am 27.7 29.9 18.4 57 6.0 E 4 7 2 4 1010.9 1010.6 0.0
28/10:30am 27.6 29.1 17.7 54 6.3 E 6 13 3 7 1011.2 1010.9 0.0
28/10:00am 28.1 30.7 19.3 58 5.7 N 4 7 2 4 1011.4 1011.1 0.0
28/09:30am 27.4 29.4 18.7 59 5.6 NE 6 7 3 4 1011.2 1010.9 0.0
28/09:00am 26.4 29.0 18.5 62 5.0 NE 2 6 1 3 1011.3 1011.0 0.0
28/08:30am 26.4 29.0 19.3 65 4.6 NNE 4 6 2 3 1011.3 1011.0 0.0
28/08:00am 25.9 29.7 20.2 71 3.7 CALM 0 4 0 2 1011.2 1010.9 0.0
28/07:00am 22.2 26.3 20.7 91 1.0 CALM 0 0 0 0 1010.9 1010.6 0.0
28/06:30am 21.2 25.2 20.5 96 0.5 CALM 0 0 0 0 1010.5 1010.2 0.0
28/06:00am 20.2 23.7 19.5 96 0.4 CALM 0 0 0 0 1010.2 1009.9 0.0
28/05:30am 20.3 23.8 19.6 96 0.4 CALM 0 0 0 0 1009.9 1009.6 0.0
28/05:00am 20.4 24.0 19.7 96 0.4 CALM 0 0 0 0 1009.7 1009.4 0.0
28/04:30am 20.3 23.8 19.6 96 0.4 CALM 0 0 0 0 1009.5 1009.2 0.0
28/04:00am 20.0 23.4 19.3 96 0.4 CALM 0 0 0 0 1009.1 1008.8 0.0
28/03:30am 20.0 23.4 19.3 96 0.4 CALM 0 0 0 0 1009.4 1009.1 0.0
28/03:00am 20.1 23.5 19.4 96 0.4 CALM 0 0 0 0 1009.4 1009.1 0.0
28/02:30am 20.3 23.8 19.5 95 0.5 CALM 0 0 0 0 1009.7 1009.4 0.0
28/02:00am 20.4 23.9 19.6 95 0.5 CALM 0 0 0 0 1009.8 1009.5 0.0
28/01:30am 20.4 23.9 19.6 95 0.5 CALM 0 0 0 0 1009.8 1009.5 0.0
28/01:00am 20.6 24.1 19.6 94 0.6 CALM 0 0 0 0 1009.9 1009.6 0.0
28/12:30am 20.8 24.3 19.6 93 0.8 CALM 0 0 0 0 1010.1 1009.8 0.0
28/12:00am 21.0 24.6 19.8 93 0.8 CALM 0 0 0 0 1010.0 1009.7 0.0
 
Date/Time
EST
Temp
°C
App
Temp
°C
Dew
Point
Rel
Hum
%
Delta-T
°C
Wind Press
QNH
hPa
Press
MSL
hPa
Rain
since 9 am
mm
Dir
 
Spd
km/h
Gust
km/h
Spd
kts
Gust
kts
27/11:30pm 21.3 25.1 20.1 93 0.8 CALM 0 0 0 0 1010.4 1010.1 0.0
27/11:00pm 21.6 25.5 20.4 93 0.8 CALM 0 0 0 0 1010.3 1010.0 0.0
27/10:30pm 21.7 25.7 20.5 93 0.8 CALM 0 0 0 0 1010.4 1010.1 0.0
27/10:00pm 21.9 25.5 20.5 92 0.9 SW 2 4 1 2 1010.5 1010.2 0.0
27/09:30pm 21.8 25.7 20.3 91 1.0 CALM 0 4 0 2 1010.1 1009.8 0.0
27/09:00pm 22.0 26.0 20.5 91 1.0 CALM 0 0 0 0 1010.2 1009.9 0.0
27/08:30pm 22.4 26.4 20.5 89 1.2 CALM 0 2 0 1 1010.0 1009.7 0.0
27/08:00pm 22.6 26.2 20.5 88 1.4 SW 2 4 1 2 1009.7 1009.4 0.0
27/07:30pm 22.8 26.4 19.8 83 1.9 CALM 0 0 0 0 1009.2 1008.9 0.0
27/07:00pm 23.6 27.3 19.9 80 2.4 CALM 0 0 0 0 1008.9 1008.6 0.0
27/06:30pm 24.3 27.8 19.6 75 3.0 CALM 0 0 0 0 1008.7 1008.4 0.0
27/06:00pm 24.9 27.6 19.5 72 3.5 ENE 4 11 2 6 1008.2 1008.0 0.0
27/05:30pm 25.2 27.4 19.1 69 3.9 ENE 6 9 3 5 1008.1 1007.9 0.0
27/05:00pm 25.9 27.8 19.8 69 4.0 ENE 9 15 5 8 1007.5 1007.3 0.0
27/04:30pm 26.1 27.6 18.8 64 4.7 E 9 15 5 8 1007.0 1006.8 0.0
27/04:00pm 26.3 27.8 18.9 63 4.8 E 9 13 5 7 1007.2 1007.0 0.0
27/03:30pm 26.9 27.5 18.7 60 5.3 E 13 19 7 10 1007.1 1006.9 0.0
27/03:00pm 26.9 27.9 18.7 60 5.3 E 11 19 6 10 1007.1 1006.9 0.0
27/02:30pm 27.4 27.4 18.1 57 5.9 E 15 22 8 12 1007.0 1006.8 0.0
27/02:00pm 28.5 29.4 19.2 57 6.0 ENE 13 22 7 12 1007.2 1007.0 0.0
27/01:30pm 27.9 29.2 19.4 60 5.5 ENE 11 17 6 9 1007.4 1007.2 0.0
27/01:00pm 27.9 30.0 18.9 58 5.8 NNE 6 11 3 6 1007.7 1007.5 0.0
27/12:30pm 27.5 29.3 18.8 59 5.6 ESE 7 13 4 7 1008.0 1007.8 0.0
27/12:00pm 27.4 29.4 18.7 59 5.6 E 6 13 3 7 1008.5 1008.2 0.0
27/11:30am 27.1 30.2 20.2 66 4.5 NE 4 11 2 6 1008.7 1008.4 0.0
27/11:00am 26.5 29.0 19.9 67 4.3 E 6 9 3 5 1008.7 1008.4 0.0
27/10:30am 25.7 28.6 19.1 67 4.2 NNE 2 6 1 3 1009.0 1008.7 0.0
27/10:00am 24.2 26.8 19.3 74 3.1 NW 4 9 2 5 1009.1 1008.8 0.0
27/09:30am 22.9 25.3 19.7 82 2.1 WNW 6 9 3 5 1009.5 1009.2 0.0
27/09:00am 22.4 25.2 20.5 89 1.2 W 6 9 3 5 1009.8 1009.5 4.0
27/08:30am 21.5 24.3 20.5 94 0.6 W 6 13 3 7 1010.2 1009.9 4.0
27/08:00am 21.4 25.0 20.6 95 0.5 ENE 2 7 1 4 1010.3 1010.0 2.6
27/07:30am 21.7 24.9 20.5 93 0.8 WSW 4 6 2 3 1010.9 1010.6 0.8
27/07:00am 21.6 25.3 20.8 95 0.5 NW 2 6 1 3 1010.6 1010.3 0.4
27/06:30am 21.6 25.6 20.6 94 0.6 CALM 0 4 0 2 1010.7 1010.4 0.2
27/06:00am 21.6 25.6 20.6 94 0.6 CALM 0 2 0 1 1009.9 1009.6 0.2
27/05:30am 21.6 25.1 20.4 93 0.8 SW 2 7 1 4 1009.3 1009.0 0.0
27/05:00am 21.2 25.0 20.2 94 0.6 CALM 0 4 0 2 1008.2 1008.0 0.0
27/04:30am 21.1 24.9 20.1 94 0.6 CALM 0 0 0 0 1007.6 1007.4 0.0
27/04:00am 21.1 24.9 20.1 94 0.6 CALM 0 0 0 0 1007.8 1007.6 0.0
27/03:30am 21.3 25.2 20.3 94 0.6 CALM 0 0 0 0 1007.8 1007.6 0.0
27/03:00am 21.2 24.8 20.5 96 0.5 WSW 2 4 1 2 1008.0 1007.8 0.0
27/02:30am 20.8 24.5 20.0 95 0.5 CALM 0 0 0 0 1007.6 1007.4 0.0
27/02:00am 21.0 24.8 20.2 95 0.5 CALM 0 0 0 0 1007.9 1007.7 0.0
27/01:30am 20.8 24.5 20.0 95 0.5 CALM 0 0 0 0 1007.7 1007.5 0.0
27/01:00am 20.9 24.6 19.9 94 0.6 CALM 0 0 0 0 1008.1 1007.9 0.0
27/12:30am 21.1 24.8 19.9 93 0.8 CALM 0 0 0 0 1008.2 1008.0 0.0
27/12:00am 21.2 25.0 20.2 94 0.6 CALM 0 0 0 0 1008.6 1008.3 0.0
 
Date/Time
EST
Temp
°C
App
Temp
°C
Dew
Point
Rel
Hum
%
Delta-T
°C
Wind Press
QNH
hPa
Press
MSL
hPa
Rain
since 9 am
mm
Dir
 
Spd
km/h
Gust
km/h
Spd
kts
Gust
kts
26/11:30pm 21.2 24.4 19.8 92 0.9 W 2 4 1 2 1008.9 1008.6 0.0
26/11:00pm 21.4 25.1 20.0 92 0.9 CALM 0 0 0 0 1009.2 1008.9 0.0
26/10:30pm 21.6 25.4 20.1 91 1.0 CALM 0 4 0 2 1009.4 1009.1 0.0
26/10:00pm 21.9 25.7 20.2 90 1.1 CALM 0 0 0 0 1009.3 1009.0 0.0
26/09:30pm 22.1 25.9 20.2 89 1.2 CALM 0 0 0 0 1009.5 1009.2 0.0
26/09:00pm 22.4 25.5 19.6 84 1.8 SW 2 6 1 3 1009.6 1009.3 0.0
26/08:30pm 22.6 25.9 19.2 81 2.2 CALM 0 0 0 0 1009.1 1008.8 0.0
26/08:00pm 23.0 26.4 19.4 80 2.3 CALM 0 0 0 0 1009.2 1008.9 0.0
26/07:30pm 23.6 27.0 19.3 77 2.8 CALM 0 0 0 0 1008.9 1008.6 0.0
26/07:00pm 24.0 27.3 19.1 74 3.1 CALM 0 0 0 0 1008.6 1008.3 0.0
26/06:30pm 24.4 26.9 19.0 72 3.4 SE 4 6 2 3 1008.6 1008.3 0.0
26/06:00pm 24.9 26.9 19.1 70 3.7 E 7 9 4 5 1007.9 1007.7 0.0
26/05:30pm 25.3 27.5 19.2 69 3.9 ENE 6 9 3 5 1007.6 1007.4 0.0
26/05:00pm 25.9 27.6 18.6 64 4.7 E 7 13 4 7 1007.4 1007.2 0.0
26/04:30pm 25.9 26.9 18.6 64 4.7 ENE 11 20 6 11 1007.2 1007.0 0.0
26/04:00pm 26.3 27.6 19.2 65 4.6 E 11 17 6 9 1007.3 1007.1 0.0
26/03:30pm 27.1 28.2 18.9 61 5.3 E 11 19 6 10 1007.3 1007.1 0.0
26/03:00pm 26.6 27.6 18.7 62 5.1 ENE 11 20 6 11 1007.2 1007.0 0.0
26/02:30pm 26.7 27.7 18.6 61 5.2 ENE 11 19 6 10 1007.5 1007.3 0.0
26/02:00pm 26.6 27.6 18.7 62 5.1 ENE 11 17 6 9 1007.8 1007.6 0.0
26/01:30pm 27.6 29.7 19.4 61 5.3 ENE 7 17 4 9 1008.1 1007.9 0.0
26/01:00pm 27.5 28.3 18.2 57 5.9 ENE 11 19 6 10 1008.6 1008.3 0.0
26/12:30pm 28.7 30.9 19.1 56 6.2 ESE 6 13 3 7 1009.1 1008.8 0.0
26/12:00pm 26.9 28.7 18.2 59 5.5 ESE 6 13 3 7 1009.2 1008.9 0.0
26/11:30am 28.0 31.0 20.0 61 5.2 SE 4 7 2 4 1009.6 1009.3 0.0
26/11:00am 26.2 28.5 18.6 63 4.9 SE 4 11 2 6 1009.8 1009.5 0.0
26/10:30am 26.4 28.6 18.3 61 5.2 ESE 4 7 2 4 1010.1 1009.8 0.0
26/10:00am 26.2 28.4 19.1 65 4.6 SE 6 13 3 7 1010.2 1009.9 0.0
26/09:30am 25.3 27.3 19.2 69 3.9 ESE 7 15 4 8 1010.3 1010.0 0.0
26/09:00am 25.7 28.5 19.6 69 3.9 SE 4 6 2 3 1010.3 1010.0 0.6
26/08:30am 25.4 27.8 18.8 67 4.2 SSW 4 13 2 7 1010.2 1009.9 0.6
26/08:00am 24.6 27.6 20.1 76 2.9 E 4 9 2 5 1010.0 1009.7 0.6
26/07:30am 22.5 26.3 21.0 91 1.0 ENE 2 4 1 2 1009.9 1009.6 0.6
26/07:00am 21.5 25.4 20.3 93 0.8 CALM 0 0 0 0 1009.7 1009.4 0.6
26/06:30am 21.1 24.8 19.9 93 0.8 CALM 0 0 0 0 1009.4 1009.1 0.6
26/06:00am 20.7 23.5 19.7 94 0.6 SW 4 6 2 3 1009.1 1008.8 0.6
26/05:30am 21.1 25.0 20.3 95 0.5 CALM 0 2 0 1 1009.0 1008.7 0.6
26/05:00am 20.6 24.2 19.8 95 0.5 CALM 0 0 0 0 1008.9 1008.6 0.4
26/04:30am 20.5 24.1 19.7 95 0.5 CALM 0 0 0 0 1008.8 1008.5 0.4
26/04:00am 20.5 24.0 19.5 94 0.6 CALM 0 0 0 0 1008.9 1008.6 0.4
26/03:30am 20.9 24.6 19.9 94 0.6 CALM 0 0 0 0 1009.0 1008.7 0.4
26/03:00am 20.8 24.5 20.0 95 0.5 CALM 0 0 0 0 1009.3 1009.0 0.4
26/02:30am 20.7 24.3 19.7 94 0.6 CALM 0 0 0 0 1009.5 1009.2 0.4
26/02:00am 20.7 24.1 19.4 92 0.8 CALM 0 0 0 0 1009.7 1009.4 0.4
26/01:30am 21.2 24.4 19.7 91 1.0 SSW 2 6 1 3 1010.1 1009.8 0.4
26/01:00am 20.6 23.7 19.4 93 0.8 SSW 2 6 1 3 1010.4 1010.1 0.4
26/12:30am 20.8 24.3 19.5 92 0.8 CALM 0 0 0 0 1010.6 1010.3 0.4
26/12:00am 21.1 24.7 19.7 92 0.9 CALM 0 0 0 0 1011.2 1010.9 0.4

Other Formats:

Comma delimited format used in spreadsheet applications
http://www.bom.gov.au/fwo/IDQ60801/IDQ60801.95572.axf

JavaScript Object Notation format (JSON) in row-major order
http://www.bom.gov.au/fwo/IDQ60801/IDQ60801.95572.json